Etusivu
METAR-TAF:

METAR-TAF

Lentoasemat :

Brenham Municipal Airport

Brenham, Texas, Yhdysvallat

Leveyspiiri: 30-13-08N, Pituuspiiri: 096-22-27W, korkeus merenpinnasta: 94 m

Tämänhetkinen sää

Tämä raportti tehtiin 13 minuuttia sitten, kello 17.15 UTC
Tuuli 9 kn etelästä/kaakosta
Lämpötila 32°C
Kosteus 71%
Ilmanpaine 1009 hPa
Näkyvyys: 11.3 km
Hajonneita pilviä 2400 ft:n korkeudessa
Pilvistä 3000 ft:n korkeudessa

METAR: K11R 261715Z AUTO 15009KT 7SM BKN024 OVC030 32/26 A2979 RMK AO2 T03200255

Aika: 12:28 (17:28 UTC)


TAF: puuttuu

Säähavainnot ja -ennusteet yli 4000 lentoasemalta (METAR- ja TAF-raportit).

Käytössä olevat sääasemat on merkitty karttaan keltaisilla ja punaisilla pisteillä.

Aseta hiiri pisteen päälle nähdäksesi sääaseman nimen.

Klikkaa sitten nähdäksesi säähavainnot ja -ennusteet.

Kartan vaihtaminen: klikkaa mustalla rastilla varustettuja vihreitä pisteitä, niin voit zoomata sisään; viivalla varustettua vihreää pistettä, niin voit zoomata ulos tai vihreitä nuolia, niin pääset viereisille kartoille.


METAR-TAF: